WetterOnline ( https://www.wetteronline.de )

Wetter aktuell Würzburg

Aktuelles Wetter: Würzburg (272m)

6-stündlich | Neueste Meldungen
Ortszeit Temperatur Wetter
Di, 16.07. 2:00 13.0° C leicht bewölkt
Mo, 15.07. 20:00 20.8° C leicht bewölkt
Mo, 15.07. 14:00 22.1° C wolkig
Mo, 15.07. 8:00 14.6° C wolkenlos
Mo, 15.07. 2:00 13.3° C wolkig
So, 14.07. 20:00 18.9° C wolkenlos
So, 14.07. 14:00 20.9° C leicht bewölkt
So, 14.07. 8:00 14.9° C bedeckt
Ortszeit Temperatur Wetter
Di, 16.07. 6:00 10.8° C wolkenlos
Di, 16.07. 5:50 10.8° C wolkenlos
Di, 16.07. 5:40 10.8° C wolkenlos
Di, 16.07. 5:30 10.9° C leicht bewölkt
Di, 16.07. 5:20 10.9° C leicht bewölkt
Di, 16.07. 5:10 11.6° C bedeckt
Di, 16.07. 5:00 11.7° C bedeckt
Di, 16.07. 4:30 11.8° C bewölkt
Di, 16.07. 4:00 12.3° C bedeckt
Di, 16.07. 3:30 12.3° C leicht bewölkt
Di, 16.07. 3:00 12.8° C bedeckt
Ortszeit Relative Feuchte Sichtweite
Di, 16.07. 2:00 79% 24 km
Mo, 15.07. 20:00 52% 70 km
Mo, 15.07. 14:00 46% 60 km
Mo, 15.07. 8:00 75% 45 km
Mo, 15.07. 2:00 80% 70 km
So, 14.07. 20:00 54% 70 km
So, 14.07. 14:00 52% 60 km
So, 14.07. 8:00 92% 10 km
Ortszeit Relative Feuchte Sichtweite
Di, 16.07. 6:00 89% 14 km
Di, 16.07. 5:50 89% -
Di, 16.07. 5:40 87% -
Di, 16.07. 5:30 86% 17 km
Di, 16.07. 5:20 86% -
Di, 16.07. 5:10 85% -
Di, 16.07. 5:00 84% 20 km
Di, 16.07. 4:30 84% 19 km
Di, 16.07. 4:00 81% 21 km
Di, 16.07. 3:30 82% 20 km
Di, 16.07. 3:00 80% 22 km
Ortszeit Niederschlagsmenge Niederschlagsart
Di, 16.07. 2:00 0.0 l/m2 in 6 Std. -
Mo, 15.07. 20:00 0.0 l/m2 in 12 Std. -
Mo, 15.07. 14:00 0.0 l/m2 in 6 Std. -
Mo, 15.07. 8:00 0.0 l/m2 in 12 Std. -
Mo, 15.07. 2:00 0.0 l/m2 in 6 Std. -
So, 14.07. 20:00 0.0 l/m2 in 12 Std. -
So, 14.07. 14:00 0.0 l/m2 in 6 Std. -
So, 14.07. 8:00 2 l/m2 in 12 Std. Regen
Ortszeit Niederschlagsmenge Niederschlagsart
Di, 16.07. 6:00 0.0 l/m2 in 1 Std. -
Di, 16.07. 5:50 keine Meldung -
Di, 16.07. 5:40 keine Meldung -
Di, 16.07. 5:30 0.0 l/m2 in 1 Std. -
Di, 16.07. 5:20 keine Meldung -
Di, 16.07. 5:10 keine Meldung -
Di, 16.07. 5:00 0.0 l/m2 in 1 Std. -
Di, 16.07. 4:30 0.0 l/m2 in 1 Std. -
Di, 16.07. 4:00 0.0 l/m2 in 1 Std. -
Di, 16.07. 3:30 0.0 l/m2 in 1 Std. -
Di, 16.07. 3:00 0.0 l/m2 in 1 Std. -
Ortszeit Stärke Spitze Richtung
km/h Bft. km/h Grad Sektor
Di, 16.07. 2:00 6 1 30 350° N
Mo, 15.07. 20:00 17 3 30 360° N
Mo, 15.07. 14:00 7 2 22 330° NW
Mo, 15.07. 8:00 7 2 20 40° NO
Mo, 15.07. 2:00 9 2 28 30° NO
So, 14.07. 20:00 17 3 31 360° N
So, 14.07. 14:00 14 3 25 30° NO
So, 14.07. 8:00 6 1 11 10° N
Ortszeit Stärke Spitze Richtung
km/h Bft. km/h Grad Sektor
Di, 16.07. 6:00 7 2 9 320° NW
Di, 16.07. 5:50 7 2 - 320° NW
Di, 16.07. 5:40 7 2 - 310° NW
Di, 16.07. 5:30 6 1 7 320° NW
Di, 16.07. 5:20 6 1 - 320° NW
Di, 16.07. 5:10 4 1 - 360° N
Di, 16.07. 5:00 4 1 7 360° N
Di, 16.07. 4:30 4 1 7 340° N
Di, 16.07. 4:00 4 1 7 350° N
Di, 16.07. 3:30 6 1 7 340° N
Di, 16.07. 3:00 6 1 9 350° N
Ortszeit Untergrenze Bedeckung Gattung
total tief tief mittel hoch
Di, 16.07. 2:00 12000 m 5/8 0/8 - - -
Mo, 15.07. 20:00 7800 m 8/8 0/8 - - -
Mo, 15.07. 14:00 1380 m 5/8 5/8 - - -
Mo, 15.07. 8:00 - 0/8 0/8 - - -
Mo, 15.07. 2:00 1380 m 5/8 5/8 - - -
So, 14.07. 20:00 - 0/8 0/8 - - -
So, 14.07. 14:00 1080 m 4/8 4/8 - - -
So, 14.07. 8:00 750 m 8/8 8/8 - - -
Ortszeit Bedeckungsgrad in Achtel und Wolkenuntergrenze
Di, 16.07. 6:00 keine Wolken
Di, 16.07. 5:50 keine Wolken
Di, 16.07. 5:40 keine Wolken
Di, 16.07. 5:30 4(540m)
Di, 16.07. 5:20 4(540m)
Di, 16.07. 5:10 8(540m)
Di, 16.07. 5:00 8(600m)
Di, 16.07. 4:30 7(630m) 7(9000m)
Di, 16.07. 4:00 8(660m)
Di, 16.07. 3:30 4(630m)
Di, 16.07. 3:00 8(600m)
Ortszeit Luftdruck NN (hPa) Tendenz (hPa in 3 Std.)
Di, 16.07. 2:00 1019 + 0,9
Mo, 15.07. 20:00 1016 0,0
Mo, 15.07. 14:00 1016 - 0,6
Mo, 15.07. 8:00 1018 + 0,5
Mo, 15.07. 2:00 1018 + 0,1
So, 14.07. 20:00 1017 + 0,4
So, 14.07. 14:00 1017 - 0,6
So, 14.07. 8:00 1017 - 0,1
Ortszeit Luftdruck NN (hPa) Tendenz (hPa in 3 Std.)
Di, 16.07. 6:00 1019 - 0,3
Di, 16.07. 5:50 1019 keine Meldung
Di, 16.07. 5:40 1019 keine Meldung
Di, 16.07. 5:30 1019 - 0,3
Di, 16.07. 5:20 1019 keine Meldung
Di, 16.07. 5:10 1019 keine Meldung
Di, 16.07. 5:00 1019 - 0,4
Di, 16.07. 4:30 1019 - 0,3
Di, 16.07. 4:00 1019 0,0
Di, 16.07. 3:30 1019 + 0,4
Di, 16.07. 3:00 1019 + 0,4
Ortszeit Schneehöhe (cm)
Di, 16.07. 2:00 -
Mo, 15.07. 20:00 -
Mo, 15.07. 14:00 -
Mo, 15.07. 8:00 -
Mo, 15.07. 2:00 -
So, 14.07. 20:00 -
So, 14.07. 14:00 -
So, 14.07. 8:00 -
Ortszeit Schneehöhe (cm)
Di, 16.07. 6:00 -
Di, 16.07. 5:50 -
Di, 16.07. 5:40 -
Di, 16.07. 5:30 -
Di, 16.07. 5:20 -
Di, 16.07. 5:10 -
Di, 16.07. 5:00 -
Di, 16.07. 4:30 -
Di, 16.07. 4:00 -
Di, 16.07. 3:30 -
Di, 16.07. 3:00 -
Link zu dieser Seite / Seite empfehlen

Das Wetter in ...